Terminal Aerodrome Forecast
Issued by NWS

Home | Current Version | Previous Version | Text Only | Print | Product List | Glossary On
Versions: 1 2 3 4 5 6 7 8 9 10 11 12 13 14 15
194
FTUS42 KMLB 231737
TAFLEE
TAF
KLEE 231737Z 2318/2418 16010KT P6SM SCT035 SCT250
     FM232300 15010KT P6SM VCTS SCT030CB SCT080 BKN250
      TEMPO 2323/2403 BKN030CB
     FM240300 15005KT P6SM SCT050 SCT100 BKN250
     FM240600 16004KT P6SM FEW015 SCT250=

USA.gov is the U.S. government's official web portal to all federal, state and local government web resources and services.